Accueil
METAR-TAF:

METAR-TAF

Aéroports :

Punta Marina

Ravenne, Italie

latitude: 44-27N, longitude: 012-18E, altitude: 2 m

Observation

Le bulletin a été fait il y a 1 heure et 11 minutes, à 14:55 UTC
Vent 7 kt de sud-est, variant entre est et sud
Température 25°C
Humidité 54%
Pression 1012 hPa

METAR: LIVM 021455Z AUTO 13007KT 090V190 //// 25/15 Q1012

Heure: 18:06 (16:06 UTC)


TAF: absent

Observations et prévisions météorologiques de plus de 4000 aéroports (messages METAR et TAF).

Les stations disponibles sont représentées par des disques jaunes et rouges sur la carte.

Passer la souris dessus pour voir le nom de la station.

Cliquer dessus pour voir les observations et prévisions météorologiques.

Pour changer de carte: cliquez sur les boutons verts avec une croix noire pour zoomer, sur le bouton vert avec un tiret pour effectuer un zoom arrière, ou sur les flèches vertes pour les cartes adjacentes.


METAR-TAF: